Time;durP1;ratioP1;P1;durP2;ratioP2;P2;SDS_P1;SDS_P2;PMS_P1;PMS_P2;Temp;Humidity;BMP_temperature;BMP_pressure;BME280_temperature;BME280_humidity;BME280_pressure;Samples;Min_cycle;Max_cycle;Signal;HPM_P1;HPM_P2
2024/01/07 00:02:25;;;;;;;4.30;3.08;;;0.20;1.00;;;;;;5103193;27;20303;-75
2024/01/07 00:04:54;;;;;;;4.57;3.20;;;0.10;1.00;;;;;;5105710;27;20240;-79
2024/01/07 00:07:21;;;;;;;4.70;3.60;;;0.10;1.00;;;;;;5106492;27;20242;-79
2024/01/07 00:09:48;;;;;;;3.60;3.28;;;0.20;1.00;;;;;;5086479;27;20234;-80
2024/01/07 00:12:16;;;;;;;6.38;3.90;;;0.10;1.00;;;;;;5097569;27;20238;-78
2024/01/07 00:14:46;;;;;;;5.45;3.45;;;0.20;1.00;;;;;;5111377;27;20287;-80
2024/01/07 00:17:16;;;;;;;4.63;3.50;;;0.10;1.00;;;;;;5102868;27;21131;-80
2024/01/07 00:19:43;;;;;;;4.30;3.90;;;0.00;1.00;;;;;;5081947;28;20666;-77
2024/01/07 00:22:17;;;;;;;4.30;3.40;;;-0.10;1.00;;;;;;5073473;27;20327;-78
2024/01/07 00:24:45;;;;;;;4.78;3.35;;;-0.10;1.00;;;;;;5076615;27;20236;-76
2024/01/07 00:27:12;;;;;;;4.43;3.30;;;0.00;1.00;;;;;;5069452;28;20320;-77
2024/01/07 00:29:39;;;;;;;3.38;2.83;;;-0.10;1.00;;;;;;5084864;27;20242;-76
2024/01/07 00:32:09;;;;;;;5.13;3.38;;;0.00;1.00;;;;;;5094878;28;20732;-79
2024/01/07 00:34:36;;;;;;;3.97;3.25;;;0.00;1.00;;;;;;5091695;28;20262;-75
2024/01/07 00:37:02;;;;;;;4.82;3.20;;;0.10;1.00;;;;;;5090062;27;20298;-76
2024/01/07 00:39:31;;;;;;;5.05;4.57;;;0.10;1.00;;;;;;5091947;28;20297;-74
2024/01/07 00:41:58;;;;;;;4.68;3.47;;;0.10;1.00;;;;;;5092318;27;21021;-76
2024/01/07 00:44:25;;;;;;;4.15;3.65;;;0.00;1.00;;;;;;5091313;27;20267;-74
2024/01/07 00:46:54;;;;;;;3.53;3.10;;;0.00;1.00;;;;;;5093130;28;20315;-75
2024/01/07 00:49:21;;;;;;;4.10;3.63;;;-0.10;1.00;;;;;;5094036;28;20343;-75
2024/01/07 00:51:48;;;;;;;3.45;3.10;;;0.00;1.00;;;;;;5089336;27;20235;-76
2024/01/07 00:54:23;;;;;;;4.18;3.03;;;-0.10;1.00;;;;;;5093536;27;20801;-80
2024/01/07 00:56:51;;;;;;;3.78;3.08;;;-0.10;1.00;;;;;;5083649;27;20236;-75
2024/01/07 00:59:18;;;;;;;3.55;2.33;;;-0.10;1.00;;;;;;5106595;27;20232;-76
2024/01/07 01:01:45;;;;;;;4.03;2.65;;;-0.20;1.00;;;;;;5095747;27;20242;-74
2024/01/07 01:04:13;;;;;;;4.07;2.10;;;-0.30;1.00;;;;;;5087589;27;20236;-75
2024/01/07 01:06:40;;;;;;;5.25;2.78;;;-0.30;1.00;;;;;;5094318;27;20280;-74
2024/01/07 01:09:07;;;;;;;3.88;2.58;;;-0.30;1.00;;;;;;5095911;27;20290;-74
2024/01/07 01:11:35;;;;;;;3.42;2.60;;;-0.40;1.00;;;;;;5078271;27;20233;-75
2024/01/07 01:14:04;;;;;;;2.42;2.20;;;-0.40;1.00;;;;;;5091379;27;20773;-77
2024/01/07 01:16:34;;;;;;;5.50;2.80;;;-0.40;1.00;;;;;;5093057;27;20994;-77
2024/01/07 01:19:01;;;;;;;2.72;2.30;;;-0.50;1.00;;;;;;5075377;28;20319;-74
2024/01/07 01:21:28;;;;;;;3.25;2.10;;;-0.50;1.00;;;;;;5071676;28;20332;-75
2024/01/07 01:23:55;;;;;;;3.17;2.38;;;-0.50;1.00;;;;;;5076887;27;20358;-75
2024/01/07 01:26:22;;;;;;;2.50;2.30;;;-0.60;1.00;;;;;;5083869;27;20232;-74
2024/01/07 01:28:50;;;;;;;3.03;2.35;;;-0.60;1.00;;;;;;5094362;27;20256;-72
2024/01/07 01:31:18;;;;;;;2.50;2.30;;;-0.60;1.00;;;;;;5094854;27;20305;-71
2024/01/07 01:33:45;;;;;;;3.00;2.70;;;-0.60;1.00;;;;;;5088128;27;20236;-77
2024/01/07 01:36:12;;;;;;;3.67;2.42;;;-0.60;1.00;;;;;;5094514;27;20266;-74
2024/01/07 01:38:40;;;;;;;3.05;2.40;;;-0.70;1.00;;;;;;5092726;27;20274;-72
2024/01/07 01:41:10;;;;;;;2.50;2.10;;;-0.70;1.00;;;;;;5094510;27;20237;-75
2024/01/07 01:43:38;;;;;;;2.67;2.10;;;-0.70;1.00;;;;;;5091730;27;20244;-72
2024/01/07 01:46:05;;;;;;;2.72;2.53;;;-0.70;1.00;;;;;;5091556;27;20255;-72
2024/01/07 01:48:34;;;;;;;3.42;2.55;;;-0.80;1.00;;;;;;5082274;27;20283;-72
2024/01/07 01:51:02;;;;;;;3.88;2.80;;;-0.80;1.00;;;;;;5079818;28;20236;-71
2024/01/07 01:53:30;;;;;;;2.67;2.47;;;-0.80;1.00;;;;;;5091312;27;20737;-73
2024/01/07 01:55:58;;;;;;;2.50;2.30;;;-0.80;1.00;;;;;;5074518;28;20232;-73
2024/01/07 01:58:27;;;;;;;3.63;2.70;;;-0.80;1.00;;;;;;5069671;27;20249;-72
2024/01/07 02:00:54;;;;;;;5.03;3.33;;;-0.90;1.00;;;;;;5087960;28;20263;-73
2024/01/07 02:03:22;;;;;;;3.67;2.72;;;-0.90;1.00;;;;;;5093586;27;20271;-75
2024/01/07 02:05:51;;;;;;;3.90;2.60;;;-0.90;1.00;;;;;;5091588;27;20326;-72
2024/01/07 02:08:20;;;;;;;3.65;2.65;;;-0.90;1.00;;;;;;5092436;27;20584;-72
2024/01/07 02:10:47;;;;;;;2.80;2.60;;;-0.90;1.00;;;;;;5096967;28;20259;-78
2024/01/07 02:13:14;;;;;;;4.25;2.92;;;-1.00;1.00;;;;;;5094554;27;20289;-71
2024/01/07 02:15:41;;;;;;;2.67;2.10;;;-1.00;1.00;;;;;;5074888;27;20239;-75
2024/01/07 02:18:08;;;;;;;2.95;2.25;;;-1.10;1.00;;;;;;5081701;27;20328;-74
2024/01/07 02:20:36;;;;;;;2.67;2.42;;;-1.00;1.00;;;;;;5081999;27;20756;-73
2024/01/07 02:23:05;;;;;;;3.20;2.53;;;-1.00;1.00;;;;;;5070782;27;20237;-72
2024/01/07 02:25:37;;;;;;;2.75;2.42;;;-1.10;1.00;;;;;;5067286;28;20244;-75
2024/01/07 02:28:04;;;;;;;3.13;2.40;;;-1.30;1.00;;;;;;5078129;28;20331;-73
2024/01/07 02:30:31;;;;;;;2.65;2.40;;;-1.30;1.00;;;;;;5072406;27;20260;-70
2024/01/07 02:33:03;;;;;;;4.25;2.55;;;-1.40;1.00;;;;;;5074798;28;20236;-71
2024/01/07 02:35:30;;;;;;;2.72;2.30;;;-1.50;1.00;;;;;;5073946;27;20653;-73
2024/01/07 02:37:57;;;;;;;2.20;2.10;;;-1.50;1.00;;;;;;5091180;27;20248;-74
2024/01/07 02:40:24;;;;;;;2.60;2.00;;;-1.50;1.00;;;;;;5083184;27;20270;-71
2024/01/07 02:42:52;;;;;;;4.57;2.60;;;-1.50;1.00;;;;;;5105073;27;20231;-72
2024/01/07 02:45:19;;;;;;;3.60;2.00;;;-1.60;1.00;;;;;;5085312;27;20287;-72
2024/01/07 02:47:46;;;;;;;3.97;3.50;;;-1.70;1.00;;;;;;5092068;27;20294;-71
2024/01/07 02:50:13;;;;;;;3.33;2.85;;;-1.80;1.00;;;;;;5078927;27;20236;-74
2024/01/07 02:52:40;;;;;;;3.05;2.75;;;-1.80;1.00;;;;;;5070513;27;20241;-72
2024/01/07 02:55:11;;;;;;;3.83;2.00;;;-1.80;1.00;;;;;;5073278;27;20237;-73
2024/01/07 02:57:38;;;;;;;2.90;2.40;;;-1.90;1.00;;;;;;5088004;28;20240;-74
2024/01/07 03:00:17;;;;;;;4.25;2.40;;;-1.90;1.00;;;;;;5094498;28;20244;-75
2024/01/07 03:02:44;;;;;;;2.80;2.60;;;-1.90;1.00;;;;;;5093969;27;21019;-71
2024/01/07 03:05:11;;;;;;;3.15;2.47;;;-2.00;1.00;;;;;;5089021;27;20232;-73
2024/01/07 03:07:39;;;;;;;4.50;2.53;;;-1.90;1.00;;;;;;5094148;27;20240;-72
2024/01/07 03:10:08;;;;;;;2.55;2.35;;;-2.00;1.00;;;;;;5091523;27;20235;-78
2024/01/07 03:12:35;;;;;;;2.38;2.15;;;-2.10;1.00;;;;;;5093576;27;20256;-74
2024/01/07 03:15:02;;;;;;;3.42;2.90;;;-2.10;1.00;;;;;;5094429;27;20264;-76
2024/01/07 03:17:30;;;;;;;3.95;2.50;;;-2.10;1.00;;;;;;5090515;27;21727;-74
2024/01/07 03:19:57;;;;;;;3.80;2.63;;;-2.10;1.00;;;;;;5094008;27;20236;-72
2024/01/07 03:22:36;;;;;;;3.60;2.28;;;-2.10;1.00;;;;;;5090913;27;20320;-76
2024/01/07 03:25:03;;;;;;;3.70;3.20;;;-2.10;1.00;;;;;;5095019;27;20267;-74
2024/01/07 03:27:30;;;;;;;3.28;2.97;;;-2.10;1.00;;;;;;5090061;27;20244;-77
2024/01/07 03:29:58;;;;;;;2.97;2.60;;;-2.20;1.00;;;;;;5089208;27;20241;-71
2024/01/07 03:32:25;;;;;;;2.70;2.50;;;-2.20;1.00;;;;;;5074662;27;20302;-72
2024/01/07 03:34:54;;;;;;;3.45;2.55;;;-2.20;1.00;;;;;;5074373;28;20343;-69
2024/01/07 03:37:25;;;;;;;2.83;2.55;;;-2.20;1.00;;;;;;5084613;27;20750;-71
2024/01/07 03:39:53;;;;;;;3.80;3.15;;;-2.20;1.00;;;;;;5087260;28;20275;-71
2024/01/07 03:42:20;;;;;;;3.08;2.60;;;-2.20;1.00;;;;;;5085713;27;20743;-72
2024/01/07 03:44:47;;;;;;;3.00;2.30;;;-2.20;1.00;;;;;;5072718;28;20245;-73
2024/01/07 03:47:14;;;;;;;2.88;2.60;;;-2.20;1.00;;;;;;5073789;27;20717;-73
2024/01/07 03:49:41;;;;;;;4.60;2.90;;;-2.20;1.00;;;;;;5071810;27;20236;-71
2024/01/07 03:52:10;;;;;;;6.93;3.10;;;-2.20;1.00;;;;;;5072958;27;20240;-73
2024/01/07 03:54:37;;;;;;;3.05;2.60;;;-2.30;1.00;;;;;;5065304;28;20260;-73
2024/01/07 03:57:04;;;;;;;3.40;3.10;;;-2.30;1.00;;;;;;5072740;27;20327;-70
2024/01/07 03:59:31;;;;;;;4.55;2.90;;;-2.30;1.00;;;;;;5070384;27;20407;-73
2024/01/07 04:01:58;;;;;;;3.97;3.10;;;-2.30;1.00;;;;;;5086142;27;20276;-70
2024/01/07 04:04:25;;;;;;;3.72;2.92;;;-2.30;1.00;;;;;;5072849;28;20302;-72
2024/01/07 04:06:52;;;;;;;3.13;2.22;;;-2.30;1.00;;;;;;5071540;28;20257;-72
2024/01/07 04:09:21;;;;;;;3.15;2.90;;;-2.30;1.00;;;;;;5071639;27;20294;-72
2024/01/07 04:11:49;;;;;;;2.70;2.50;;;-2.40;1.00;;;;;;5093100;27;20231;-72
2024/01/07 04:14:16;;;;;;;3.03;2.70;;;-2.40;1.00;;;;;;5092040;28;20229;-78
2024/01/07 04:16:43;;;;;;;2.58;2.38;;;-2.40;1.00;;;;;;5082589;27;20322;-76
2024/01/07 04:19:11;;;;;;;3.50;2.75;;;-2.40;1.00;;;;;;5076884;27;20236;-77
2024/01/07 04:21:40;;;;;;;3.85;2.90;;;-2.40;1.00;;;;;;5099627;27;20232;-76
2024/01/07 04:24:07;;;;;;;3.90;2.50;;;-2.40;1.00;;;;;;5101897;27;20235;-77
2024/01/07 04:26:36;;;;;;;3.15;2.50;;;-2.40;1.00;;;;;;5100155;27;20968;-77
2024/01/07 04:29:03;;;;;;;4.18;2.55;;;-2.40;1.00;;;;;;5102120;27;20266;-77
2024/01/07 04:31:30;;;;;;;2.78;2.30;;;-2.40;1.00;;;;;;5090565;27;20298;-79
2024/01/07 04:33:57;;;;;;;3.88;2.50;;;-2.40;1.00;;;;;;5098938;28;20248;-77
2024/01/07 04:36:24;;;;;;;3.63;2.50;;;-2.40;1.00;;;;;;5084809;27;20232;-77
2024/01/07 04:38:51;;;;;;;4.00;2.60;;;-2.40;1.00;;;;;;5102895;27;20245;-79
2024/01/07 04:41:21;;;;;;;2.63;2.42;;;-2.50;1.00;;;;;;5099542;28;20244;-77
2024/01/07 04:43:50;;;;;;;3.58;2.42;;;-2.50;1.00;;;;;;5100237;28;21041;-77
2024/01/07 04:46:17;;;;;;;3.47;3.03;;;-2.50;1.00;;;;;;5102975;27;20232;-75
2024/01/07 04:48:44;;;;;;;2.65;2.40;;;-2.50;1.00;;;;;;5101563;28;21091;-79
2024/01/07 04:51:11;;;;;;;2.67;2.47;;;-2.50;1.00;;;;;;5105516;27;20228;-77
2024/01/07 04:53:38;;;;;;;2.65;2.45;;;-2.50;1.00;;;;;;5101722;27;20929;-77
2024/01/07 04:56:08;;;;;;;4.22;3.00;;;-2.50;1.00;;;;;;5099669;27;20231;-75
2024/01/07 04:58:35;;;;;;;2.38;2.22;;;-2.50;1.00;;;;;;5093605;27;20800;-76
2024/01/07 05:01:03;;;;;;;3.47;2.55;;;-2.50;1.00;;;;;;5100626;27;20244;-77
2024/01/07 05:03:30;;;;;;;3.05;2.75;;;-2.50;1.00;;;;;;5086872;28;20228;-78
2024/01/07 05:05:58;;;;;;;3.38;2.33;;;-2.50;1.00;;;;;;5086626;28;20278;-77
2024/01/07 05:08:25;;;;;;;2.97;2.70;;;-2.50;1.00;;;;;;5080887;28;20242;-77
2024/01/07 05:10:51;;;;;;;2.67;2.47;;;-2.50;1.00;;;;;;5086134;27;20286;-76
2024/01/07 05:13:18;;;;;;;4.00;2.95;;;-2.60;1.00;;;;;;5099320;27;20254;-75
2024/01/07 05:15:46;;;;;;;4.70;2.55;;;-2.60;1.00;;;;;;5098251;28;20232;-79
2024/01/07 05:18:14;;;;;;;4.03;3.50;;;-2.60;1.00;;;;;;5099748;28;20250;-77
2024/01/07 05:20:41;;;;;;;2.83;2.45;;;-2.60;1.00;;;;;;5101889;28;20259;-77
2024/01/07 05:23:08;;;;;;;2.95;2.65;;;-2.60;1.00;;;;;;5096425;28;20232;-77
2024/01/07 05:25:35;;;;;;;3.17;2.47;;;-2.60;1.00;;;;;;5099343;27;20251;-77
2024/01/07 05:28:02;;;;;;;3.20;2.60;;;-2.60;1.00;;;;;;5100498;28;20267;-77
2024/01/07 05:30:29;;;;;;;3.72;2.70;;;-2.60;1.00;;;;;;5089658;27;20240;-77
2024/01/07 05:32:57;;;;;;;2.85;2.53;;;-2.60;1.00;;;;;;5071411;28;20347;-79
2024/01/07 05:35:25;;;;;;;3.55;3.00;;;-2.60;1.00;;;;;;5071285;28;20747;-77
2024/01/07 05:37:52;;;;;;;3.80;3.10;;;-2.60;1.00;;;;;;5080146;28;20241;-79
2024/01/07 05:40:19;;;;;;;4.72;3.10;;;-2.50;1.00;;;;;;5082860;28;20321;-76
2024/01/07 05:42:46;;;;;;;3.35;2.60;;;-2.50;1.00;;;;;;5078800;27;20960;-75
2024/01/07 05:45:13;;;;;;;3.15;2.78;;;-2.50;1.00;;;;;;5082918;27;20309;-77
2024/01/07 05:47:40;;;;;;;2.95;2.65;;;-2.50;1.00;;;;;;5086554;27;20306;-76
2024/01/07 05:50:08;;;;;;;3.33;2.65;;;-2.50;1.00;;;;;;5100487;27;20242;-75
2024/01/07 05:52:37;;;;;;;3.25;2.40;;;-2.40;1.00;;;;;;5099967;27;20244;-73
2024/01/07 05:55:04;;;;;;;3.08;2.78;;;-2.50;1.00;;;;;;5087386;28;20232;-72
2024/01/07 05:57:35;;;;;;;3.55;2.58;;;-2.40;1.00;;;;;;5073715;27;20294;-72
2024/01/07 06:00:03;;;;;;;5.63;2.90;;;-2.30;1.00;;;;;;5075645;28;20263;-70
2024/01/07 06:02:30;;;;;;;2.60;2.40;;;-2.30;1.00;;;;;;5070432;28;20251;-72
2024/01/07 06:04:57;;;;;;;3.47;3.00;;;-2.30;1.00;;;;;;5070700;28;20347;-70
2024/01/07 06:07:24;;;;;;;3.13;2.78;;;-2.20;1.00;;;;;;5072412;28;20239;-78
2024/01/07 06:09:52;;;;;;;4.75;3.20;;;-2.10;1.00;;;;;;5085501;27;20235;-72
2024/01/07 06:12:19;;;;;;;3.75;3.30;;;-2.00;1.00;;;;;;5089322;27;20262;-74
2024/01/07 06:14:46;;;;;;;3.65;2.72;;;-2.00;1.00;;;;;;5091546;28;20240;-74
2024/01/07 06:17:13;;;;;;;3.47;3.05;;;-1.90;1.00;;;;;;5093309;27;20232;-74
2024/01/07 06:19:40;;;;;;;3.50;2.70;;;-1.80;1.00;;;;;;5087661;27;20244;-75
2024/01/07 06:22:07;;;;;;;2.97;2.75;;;-1.80;1.00;;;;;;5080374;28;20247;-78
2024/01/07 06:24:34;;;;;;;4.38;2.67;;;-1.70;1.00;;;;;;5092988;27;20243;-76
2024/01/07 06:27:03;;;;;;;3.85;3.08;;;-1.70;1.00;;;;;;5095205;28;20240;-77
2024/01/07 06:29:30;;;;;;;4.25;3.45;;;-1.70;1.00;;;;;;5092596;28;21116;-76
2024/01/07 06:31:57;;;;;;;3.53;2.85;;;-1.70;1.00;;;;;;5098595;28;20797;-76
2024/01/07 06:34:24;;;;;;;4.70;3.28;;;-1.70;1.00;;;;;;5101169;27;21104;-78
2024/01/07 06:36:52;;;;;;;5.00;3.15;;;-1.70;1.00;;;;;;5096387;28;20280;-77
2024/01/07 06:39:19;;;;;;;3.40;3.00;;;-1.60;1.00;;;;;;5093743;27;20306;-77
2024/01/07 06:41:45;;;;;;;4.57;2.90;;;-1.60;1.00;;;;;;5080325;28;20725;-79
2024/01/07 06:44:14;;;;;;;4.97;3.17;;;-1.50;1.00;;;;;;5092409;27;20322;-78
2024/01/07 06:46:41;;;;;;;3.67;3.20;;;-1.50;1.00;;;;;;5095550;28;20742;-78
2024/01/07 06:49:08;;;;;;;4.53;4.00;;;-1.40;1.00;;;;;;5094716;28;20240;-76
2024/01/07 06:51:35;;;;;;;3.55;3.10;;;-1.40;1.00;;;;;;5091793;27;20238;-78
2024/01/07 06:54:02;;;;;;;3.50;2.80;;;-1.40;1.00;;;;;;5096059;27;20236;-77
2024/01/07 06:56:32;;;;;;;3.35;3.00;;;-1.40;1.00;;;;;;5093911;27;20552;-79
2024/01/07 06:58:59;;;;;;;3.60;3.15;;;-1.40;1.00;;;;;;5095086;28;20448;-78
2024/01/07 07:01:27;;;;;;;3.25;2.67;;;-1.40;1.00;;;;;;5094980;27;20236;-77
2024/01/07 07:03:54;;;;;;;4.20;3.80;;;-1.50;1.00;;;;;;5095837;28;20274;-79
2024/01/07 07:06:21;;;;;;;3.33;3.03;;;-1.50;1.00;;;;;;5083452;28;20669;-77
2024/01/07 07:08:48;;;;;;;3.55;3.25;;;-1.50;1.00;;;;;;5080923;28;20240;-80
2024/01/07 07:11:15;;;;;;;4.00;2.88;;;-1.50;1.00;;;;;;5086055;27;20421;-77
2024/01/07 07:13:42;;;;;;;3.38;3.10;;;-1.50;1.00;;;;;;5074714;28;20267;-77
2024/01/07 07:16:09;;;;;;;3.15;2.30;;;-1.40;1.00;;;;;;5088236;28;20417;-76
2024/01/07 07:18:42;;;;;;;4.97;3.40;;;-1.40;1.00;;;;;;5078145;28;20237;-76
2024/01/07 07:21:09;;;;;;;3.63;3.17;;;-1.30;1.00;;;;;;5072159;27;20241;-76
2024/01/07 07:23:35;;;;;;;3.15;2.85;;;-1.30;1.00;;;;;;5084933;27;20715;-77
2024/01/07 07:26:02;;;;;;;4.55;4.13;;;-1.20;1.00;;;;;;5078343;27;20241;-77
2024/01/07 07:28:29;;;;;;;4.15;2.35;;;-1.10;1.00;;;;;;5070214;28;20896;-77
2024/01/07 07:30:56;;;;;;;4.20;3.80;;;-1.10;1.00;;;;;;5084188;27;20309;-76
2024/01/07 07:33:24;;;;;;;5.75;3.40;;;-1.10;1.00;;;;;;5082568;27;21019;-77
2024/01/07 07:35:52;;;;;;;3.75;3.28;;;-1.10;1.00;;;;;;5084708;28;20623;-75
2024/01/07 07:38:19;;;;;;;3.47;2.45;;;-1.10;1.00;;;;;;5091297;28;20325;-77
2024/01/07 07:40:52;;;;;;;3.00;2.45;;;-1.10;1.00;;;;;;5075398;28;20240;-78
2024/01/07 07:43:19;;;;;;;5.47;3.72;;;-1.10;1.00;;;;;;5080621;28;20834;-76
2024/01/07 07:45:46;;;;;;;6.03;3.55;;;-1.10;1.00;;;;;;5090699;27;20236;-77
2024/01/07 07:48:13;;;;;;;3.72;2.85;;;-1.10;1.00;;;;;;5092690;27;20248;-76
2024/01/07 07:50:40;;;;;;;5.55;3.67;;;-1.00;1.00;;;;;;5089680;27;20264;-77
2024/01/07 07:53:08;;;;;;;7.97;3.15;;;-0.90;1.00;;;;;;5071371;27;20300;-75
2024/01/07 07:55:35;;;;;;;4.00;3.03;;;-1.00;1.00;;;;;;5091124;27;20306;-76
2024/01/07 07:58:03;;;;;;;5.50;4.35;;;-0.90;1.00;;;;;;5089223;27;21082;-79
2024/01/07 08:00:30;;;;;;;4.35;3.75;;;-0.80;1.00;;;;;;5090336;27;20239;-76
2024/01/07 08:02:57;;;;;;;5.40;3.60;;;-0.70;1.00;;;;;;5088722;27;20360;-77
2024/01/07 08:05:24;;;;;;;5.32;3.95;;;-0.60;1.00;;;;;;5090117;27;20267;-76
2024/01/07 08:07:52;;;;;;;4.75;3.78;;;-0.50;1.00;;;;;;5089579;27;20232;-80
2024/01/07 08:10:23;;;;;;;9.35;3.85;;;-0.40;1.00;;;;;;5083176;27;20244;-80
2024/01/07 08:12:51;;;;;;;3.67;3.08;;;-0.30;1.00;;;;;;5085306;27;20228;-79
2024/01/07 08:15:18;;;;;;;3.70;3.40;;;-0.30;1.00;;;;;;5078207;27;20246;-77
2024/01/07 08:17:45;;;;;;;4.00;3.20;;;-0.30;1.00;;;;;;5090422;27;21023;-78
2024/01/07 08:20:13;;;;;;;5.32;3.35;;;-0.20;1.00;;;;;;5084520;27;20237;-78
2024/01/07 08:22:40;;;;;;;5.45;4.35;;;-0.20;1.00;;;;;;5082443;28;20221;-78
2024/01/07 08:25:08;;;;;;;5.15;4.65;;;-0.20;1.00;;;;;;5091174;28;20244;-77
2024/01/07 08:27:37;;;;;;;5.43;4.40;;;-0.20;1.00;;;;;;5090740;27;20240;-72
2024/01/07 08:30:09;;;;;;;6.25;3.67;;;-0.20;1.00;;;;;;5087898;27;20691;-75
2024/01/07 08:32:35;;;;;;;6.25;4.20;;;-0.30;1.00;;;;;;5090855;27;20240;-72
2024/01/07 08:35:02;;;;;;;5.75;3.53;;;-0.20;1.00;;;;;;5076654;28;20328;-73
2024/01/07 08:37:29;;;;;;;3.85;3.45;;;-0.10;1.00;;;;;;5080944;27;20338;-71
2024/01/07 08:39:56;;;;;;;6.70;5.68;;;-0.10;1.00;;;;;;5092491;27;20267;-76
2024/01/07 08:42:24;;;;;;;3.58;3.20;;;0.00;1.00;;;;;;5091732;28;20271;-74
2024/01/07 08:45:00;;;;;;;3.50;3.20;;;0.10;1.00;;;;;;5093008;27;20331;-75
2024/01/07 08:47:28;;;;;;;5.07;3.55;;;0.20;1.00;;;;;;5090430;28;20270;-76
2024/01/07 08:49:55;;;;;;;3.50;3.20;;;0.20;1.00;;;;;;5074947;28;20265;-73
2024/01/07 08:52:22;;;;;;;8.07;3.70;;;0.20;1.00;;;;;;5072059;27;20236;-73
2024/01/07 08:54:49;;;;;;;3.80;3.50;;;0.20;1.00;;;;;;5085956;27;20350;-72
2024/01/07 08:57:16;;;;;;;4.28;3.17;;;0.20;1.00;;;;;;5076652;28;20266;-73
2024/01/07 08:59:43;;;;;;;5.10;4.05;;;0.20;1.00;;;;;;5077987;28;20238;-74
2024/01/07 09:02:12;;;;;;;4.80;3.50;;;0.20;1.00;;;;;;5068382;28;20237;-77
2024/01/07 09:04:39;;;;;;;3.40;3.00;;;0.30;1.00;;;;;;5078879;28;20310;-76
2024/01/07 09:07:06;;;;;;;3.30;3.00;;;0.30;1.00;;;;;;5080393;27;20342;-77
2024/01/07 09:09:34;;;;;;;5.43;3.35;;;0.30;1.00;;;;;;5066334;28;20324;-76
2024/01/07 09:12:03;;;;;;;7.90;3.42;;;0.40;1.00;;;;;;5089629;27;20244;-77
2024/01/07 09:14:30;;;;;;;4.20;3.67;;;0.40;1.00;;;;;;5084414;27;20743;-76
2024/01/07 09:16:57;;;;;;;4.75;4.35;;;0.60;1.00;;;;;;5072074;27;20346;-75
2024/01/07 09:19:26;;;;;;;6.32;4.45;;;0.70;1.00;;;;;;5077312;28;20247;-75
2024/01/07 09:21:53;;;;;;;5.75;5.03;;;0.80;1.00;;;;;;5072998;28;20245;-76
2024/01/07 09:24:19;;;;;;;3.95;3.55;;;0.80;1.00;;;;;;5087415;27;20245;-76
2024/01/07 09:26:46;;;;;;;5.35;4.65;;;0.80;1.00;;;;;;5093553;27;20330;-76
2024/01/07 09:29:13;;;;;;;4.93;4.20;;;0.90;1.00;;;;;;5087003;27;20301;-76
2024/01/07 09:31:41;;;;;;;5.15;4.40;;;1.00;1.00;;;;;;5085591;27;20239;-77
2024/01/07 09:34:08;;;;;;;4.05;3.65;;;1.10;1.00;;;;;;5069512;28;20244;-76
2024/01/07 09:36:38;;;;;;;5.78;3.75;;;1.20;1.00;;;;;;5072665;27;20240;-75
2024/01/07 09:39:06;;;;;;;5.97;4.05;;;1.30;1.00;;;;;;5090170;27;20259;-77
2024/01/07 09:41:33;;;;;;;5.00;4.50;;;1.30;1.00;;;;;;5087668;28;20240;-76
2024/01/07 09:44:00;;;;;;;10.32;4.70;;;1.30;1.00;;;;;;5073599;28;20258;-76
2024/01/07 09:46:30;;;;;;;7.05;4.63;;;1.30;1.00;;;;;;5088870;27;20652;-75
2024/01/07 09:48:57;;;;;;;5.13;3.60;;;1.30;1.00;;;;;;5089647;27;20281;-74
2024/01/07 09:51:24;;;;;;;4.88;3.97;;;1.40;1.00;;;;;;5089791;27;20306;-74
2024/01/07 09:53:58;;;;;;;14.98;12.35;;;1.40;1.00;;;;;;5092156;27;20236;-75
2024/01/07 09:56:27;;;;;;;6.63;4.85;;;1.50;1.00;;;;;;5086873;27;20326;-75
2024/01/07 09:58:54;;;;;;;6.90;6.00;;;1.40;1.00;;;;;;5081143;27;20237;-76
2024/01/07 10:01:20;;;;;;;6.20;4.65;;;1.40;1.00;;;;;;5073529;27;20248;-77
2024/01/07 10:03:47;;;;;;;5.73;5.20;;;1.30;1.00;;;;;;5085983;27;20289;-76
2024/01/07 10:06:14;;;;;;;6.28;5.00;;;1.40;1.00;;;;;;5092501;27;21256;-76
2024/01/07 10:08:42;;;;;;;9.02;6.00;;;1.30;1.00;;;;;;5086205;27;20245;-76
2024/01/07 10:11:10;;;;;;;5.05;4.55;;;1.30;1.00;;;;;;5084670;27;20245;-76
2024/01/07 10:13:38;;;;;;;5.65;4.97;;;1.30;1.00;;;;;;5088455;27;20261;-76
2024/01/07 10:16:08;;;;;;;9.25;5.70;;;1.30;1.00;;;;;;5079915;27;20255;-76
2024/01/07 10:18:35;;;;;;;6.30;5.38;;;1.20;1.00;;;;;;5075937;27;20236;-75
2024/01/07 10:21:04;;;;;;;7.22;5.30;;;1.10;1.00;;;;;;5095640;28;20322;-80
2024/01/07 10:23:32;;;;;;;5.93;5.35;;;1.10;1.00;;;;;;5088211;28;20242;-76
2024/01/07 10:26:18;;;;;;;6.43;5.80;;;1.10;1.00;;;;;;5093742;27;20245;-75
2024/01/07 10:28:45;;;;;;;9.18;7.35;;;1.30;1.00;;;;;;5074537;28;20231;-76
2024/01/07 10:31:13;;;;;;;8.50;5.63;;;1.30;1.00;;;;;;5091397;28;20256;-75
2024/01/07 10:33:41;;;;;;;9.60;8.65;;;1.30;1.00;;;;;;5090342;27;20321;-75
2024/01/07 10:36:08;;;;;;;6.65;5.63;;;1.20;1.00;;;;;;5089015;27;20723;-76
2024/01/07 10:38:36;;;;;;;9.23;5.95;;;1.20;1.00;;;;;;5072434;28;21034;-75
2024/01/07 10:41:05;;;;;;;7.50;5.55;;;1.30;1.00;;;;;;5072964;27;20314;-75
2024/01/07 10:43:37;;;;;;;6.22;5.63;;;1.30;1.00;;;;;;5081266;27;20302;-73
2024/01/07 10:46:05;;;;;;;9.70;6.22;;;1.30;1.00;;;;;;5087439;27;20248;-75
2024/01/07 10:48:33;;;;;;;7.60;6.63;;;1.20;1.00;;;;;;5092456;27;20240;-73
2024/01/07 10:51:01;;;;;;;8.13;6.80;;;1.30;1.00;;;;;;5088545;28;20270;-75
2024/01/07 10:53:35;;;;;;;7.50;5.93;;;1.30;1.00;;;;;;5091773;27;20246;-74
2024/01/07 10:56:06;;;;;;;6.78;6.07;;;1.30;1.00;;;;;;5091863;28;20305;-74
2024/01/07 10:58:36;;;;;;;11.52;7.13;;;1.30;1.00;;;;;;5094004;27;20700;-74
2024/01/07 11:01:04;;;;;;;7.38;5.55;;;1.30;1.00;;;;;;5092038;27;20236;-75
2024/01/07 11:03:39;;;;;;;9.95;6.88;;;1.20;1.00;;;;;;5091923;27;20232;-75
2024/01/07 11:06:13;;;;;;;7.90;6.13;;;1.20;1.00;;;;;;5089580;27;20265;-74
2024/01/07 11:08:47;;;;;;;8.13;6.18;;;1.30;1.00;;;;;;5090401;27;20746;-74
2024/01/07 11:11:20;;;;;;;8.13;6.30;;;1.30;1.00;;;;;;5086828;28;20652;-76
2024/01/07 11:13:49;;;;;;;6.05;5.45;;;1.40;1.00;;;;;;5075002;27;20241;-73
2024/01/07 11:16:43;;;;;;;8.00;6.05;;;1.30;1.00;;;;;;5075731;27;20347;-70
2024/01/07 11:19:10;;;;;;;8.25;5.93;;;1.30;1.00;;;;;;5085978;27;20247;-70
2024/01/07 11:21:37;;;;;;;7.50;6.80;;;1.30;1.00;;;;;;5087616;27;20317;-70
2024/01/07 11:24:04;;;;;;;7.93;7.13;;;1.30;1.00;;;;;;5090733;27;20332;-72
2024/01/07 11:26:31;;;;;;;8.40;7.50;;;1.40;1.00;;;;;;5089622;27;20310;-71
2024/01/07 11:29:01;;;;;;;9.35;7.82;;;1.40;1.00;;;;;;5080364;27;20250;-71
2024/01/07 11:31:46;;;;;;;7.63;6.00;;;1.40;1.00;;;;;;5090626;27;20708;-71
2024/01/07 11:34:40;;;;;;;8.73;6.43;;;1.40;1.00;;;;;;5089989;27;20255;-71
2024/01/07 11:37:10;;;;;;;8.70;5.88;;;1.40;1.00;;;;;;5070542;27;20263;-70
2024/01/07 11:39:37;;;;;;;8.60;7.78;;;1.40;1.00;;;;;;5092308;27;20246;-69
2024/01/07 11:42:05;;;;;;;9.55;6.40;;;1.40;1.00;;;;;;5085366;28;20972;-71
2024/01/07 11:44:37;;;;;;;9.43;6.60;;;1.50;1.00;;;;;;5083531;27;20330;-73
2024/01/07 11:47:05;;;;;;;6.43;5.72;;;1.50;1.00;;;;;;5083587;28;20242;-72
2024/01/07 11:49:33;;;;;;;7.32;6.13;;;1.60;1.00;;;;;;5080979;27;20291;-72
2024/01/07 11:52:05;;;;;;;8.30;7.00;;;1.60;1.00;;;;;;5085042;27;20247;-71
2024/01/07 11:54:32;;;;;;;8.20;5.50;;;1.50;1.00;;;;;;5078320;27;20270;-69
2024/01/07 11:56:59;;;;;;;6.80;5.68;;;1.50;1.00;;;;;;5089164;27;20246;-79
2024/01/07 11:59:26;;;;;;;10.27;5.78;;;1.60;1.00;;;;;;5087748;27;20326;-75
2024/01/07 12:01:56;;;;;;;7.07;6.07;;;1.60;1.00;;;;;;5088628;28;20922;-74
2024/01/07 12:04:23;;;;;;;7.18;6.30;;;1.60;1.00;;;;;;5091512;28;20757;-69
2024/01/07 12:06:50;;;;;;;7.10;5.80;;;1.70;1.00;;;;;;5089456;28;20246;-71
2024/01/07 12:09:18;;;;;;;8.10;6.22;;;1.60;1.00;;;;;;5088667;27;20240;-71
2024/01/07 12:11:46;;;;;;;6.47;5.93;;;1.60;1.00;;;;;;5080689;27;20232;-76
2024/01/07 12:14:14;;;;;;;7.28;6.57;;;1.60;1.00;;;;;;5071263;28;20326;-75
2024/01/07 12:16:41;;;;;;;8.48;7.05;;;1.60;1.00;;;;;;5074459;28;20236;-74
2024/01/07 12:19:11;;;;;;;6.80;6.10;;;1.60;1.00;;;;;;5076099;28;20724;-75
2024/01/07 12:21:38;;;;;;;6.28;5.05;;;1.60;1.00;;;;;;5068977;27;20240;-74
2024/01/07 12:24:05;;;;;;;9.85;6.30;;;1.60;1.00;;;;;;5069452;28;20328;-76
2024/01/07 12:26:33;;;;;;;6.72;6.05;;;1.60;1.00;;;;;;5082768;27;20983;-75
2024/01/07 12:29:03;;;;;;;7.15;6.07;;;1.60;1.00;;;;;;5074025;28;20329;-76
2024/01/07 12:31:31;;;;;;;6.43;5.65;;;1.60;1.00;;;;;;5081834;27;20228;-78
2024/01/07 12:33:59;;;;;;;7.15;6.45;;;1.60;1.00;;;;;;5091309;27;20252;-75
2024/01/07 12:36:30;;;;;;;6.70;5.97;;;1.70;1.00;;;;;;5089363;27;20235;-75
2024/01/07 12:38:57;;;;;;;7.13;5.63;;;1.80;1.00;;;;;;5090841;27;20333;-75
2024/01/07 12:41:25;;;;;;;9.43;6.65;;;1.80;1.00;;;;;;5091401;27;20232;-75
2024/01/07 12:43:52;;;;;;;8.13;6.25;;;1.80;1.00;;;;;;5095821;27;20236;-75
2024/01/07 12:46:19;;;;;;;10.02;6.35;;;1.80;1.00;;;;;;5092922;27;20231;-75
2024/01/07 12:48:46;;;;;;;7.22;6.03;;;1.80;1.00;;;;;;5092426;27;20752;-74
2024/01/07 12:51:13;;;;;;;7.85;5.80;;;1.80;1.00;;;;;;5092940;27;20331;-75
2024/01/07 12:53:44;;;;;;;6.25;5.65;;;1.80;1.00;;;;;;5079882;28;20298;-76
2024/01/07 12:56:13;;;;;;;5.60;4.93;;;1.80;1.00;;;;;;5087339;27;20966;-78
2024/01/07 12:58:39;;;;;;;7.15;5.18;;;1.90;1.00;;;;;;5084003;27;20244;-76
2024/01/07 13:01:06;;;;;;;6.93;6.22;;;1.80;1.00;;;;;;5089508;27;20236;-75
2024/01/07 13:03:34;;;;;;;10.73;9.80;;;1.80;1.00;;;;;;5088911;28;21068;-76
2024/01/07 13:06:01;;;;;;;6.82;6.18;;;1.80;1.00;;;;;;5084250;28;20732;-75